createdAt,value
2022-10-01T00:00:13.391Z,10.29
2022-10-01T00:05:21.315Z,10.30
2022-10-01T00:07:48.833Z,10.30
2022-10-01T00:10:15.997Z,10.32
2022-10-01T00:12:47.858Z,10.37
2022-10-01T00:15:19.405Z,10.39
2022-10-01T00:17:45.879Z,10.39
2022-10-01T00:20:14.591Z,10.41
2022-10-01T00:22:41.508Z,10.41
2022-10-01T00:25:08.309Z,10.42
2022-10-01T00:27:35.861Z,10.42
2022-10-01T00:30:13.112Z,10.43
2022-10-01T00:38:05.475Z,10.46
2022-10-01T00:40:33.838Z,10.49
2022-10-01T00:43:00.323Z,10.51
2022-10-01T00:48:07.899Z,10.56
2022-10-01T00:50:35.147Z,10.59
2022-10-01T00:53:05.209Z,10.58
2022-10-01T00:55:36.230Z,10.59
2022-10-01T00:58:06.098Z,10.57
2022-10-01T01:00:32.803Z,10.58
2022-10-01T01:02:59.273Z,10.59
2022-10-01T01:08:06.345Z,10.58
2022-10-01T01:11:03.929Z,10.57
2022-10-01T01:13:38.207Z,10.57
2022-10-01T01:16:14.183Z,10.58
2022-10-01T01:19:01.178Z,10.63
2022-10-01T01:24:49.323Z,10.76
2022-10-01T01:27:41.111Z,10.78
2022-10-01T01:30:13.877Z,10.82
2022-10-01T01:32:57.300Z,10.90
2022-10-01T01:35:33.063Z,10.94
2022-10-01T01:38:03.605Z,10.94
2022-10-01T01:43:20.521Z,10.95
2022-10-01T01:45:49.688Z,10.96
2022-10-01T01:48:16.326Z,10.98
2022-10-01T01:50:49.855Z,10.97
2022-10-01T01:53:16.497Z,10.99
2022-10-01T01:58:28.455Z,11.01
2022-10-01T02:01:03.225Z,11.02
2022-10-01T02:03:30.059Z,11.05
2022-10-01T02:06:06.184Z,11.08
2022-10-01T02:08:42.652Z,11.10
2022-10-01T02:17:21.807Z,11.26
2022-10-01T02:20:03.841Z,11.37
2022-10-01T02:22:36.050Z,11.41
2022-10-01T02:25:04.500Z,11.44
2022-10-01T02:27:36.140Z,11.48
2022-10-01T02:30:19.625Z,11.54
2022-10-01T02:32:47.621Z,11.67
2022-10-01T02:35:20.919Z,11.65
2022-10-01T02:37:51.276Z,11.69
2022-10-01T02:40:21.008Z,11.77
2022-10-01T02:45:32.516Z,11.92
2022-10-01T02:48:04.383Z,11.96
2022-10-01T02:53:22.386Z,11.99
2022-10-01T02:55:57.943Z,12.02
2022-10-01T02:58:24.450Z,12.07
2022-10-01T03:03:40.269Z,12.18
2022-10-01T03:08:47.154Z,12.24
2022-10-01T03:11:22.602Z,12.22
2022-10-01T03:16:29.996Z,12.29
2022-10-01T03:18:56.490Z,12.29
2022-10-01T03:21:23.052Z,12.34
2022-10-01T03:23:49.510Z,12.33
2022-10-01T03:26:15.980Z,12.30
2022-10-01T03:28:42.499Z,12.27
2022-10-01T03:33:51.317Z,12.28
2022-10-01T03:38:58.540Z,12.33
2022-10-01T03:41:25.255Z,12.29
2022-10-01T03:43:55.069Z,12.35
2022-10-01T03:46:23.605Z,12.38
2022-10-01T03:48:50.619Z,12.41
2022-10-01T03:51:19.895Z,12.41
2022-10-01T03:53:47.926Z,12.40
2022-10-01T03:58:56.008Z,12.43
2022-10-01T04:01:22.621Z,12.43
2022-10-01T04:03:50.301Z,12.41
2022-10-01T04:06:20.936Z,12.41
2022-10-01T04:08:47.608Z,12.41
2022-10-01T04:11:14.429Z,12.43
2022-10-01T04:16:07.121Z,12.38
2022-10-01T04:18:34.558Z,12.36
2022-10-01T04:21:01.305Z,12.34
2022-10-01T04:23:35.402Z,12.31
2022-10-01T04:26:05.190Z,12.35
2022-10-01T04:28:32.143Z,12.38
2022-10-01T04:33:57.679Z,12.53
2022-10-01T04:39:05.564Z,12.61
2022-10-01T04:44:12.810Z,12.68
2022-10-01T04:46:39.923Z,12.67
2022-10-01T04:49:06.409Z,12.70
2022-10-01T04:54:25.664Z,12.81
2022-10-01T04:59:33.575Z,12.91
2022-10-01T05:02:00.119Z,12.97
2022-10-01T05:04:27.512Z,12.99
2022-10-01T05:06:54.016Z,12.97
2022-10-01T05:09:24.272Z,12.99
2022-10-01T05:11:52.040Z,12.92
2022-10-01T05:17:09.088Z,12.87
2022-10-01T05:19:35.582Z,12.85
2022-10-01T05:22:02.126Z,12.81
2022-10-01T05:24:29.256Z,12.80
2022-10-01T05:26:55.743Z,12.79
2022-10-01T05:29:22.278Z,12.76
2022-10-01T05:31:49.576Z,12.79
2022-10-01T05:34:16.192Z,12.76
2022-10-01T05:36:42.718Z,12.76
2022-10-01T05:39:09.732Z,12.75
2022-10-01T05:44:22.584Z,12.72
2022-10-01T05:46:49.342Z,12.70
2022-10-01T05:51:51.798Z,12.72
2022-10-01T05:56:58.673Z,12.72
2022-10-01T05:59:28.430Z,12.72
2022-10-01T06:01:57.719Z,12.75
2022-10-01T06:04:24.436Z,12.79
2022-10-01T06:06:50.994Z,12.82
2022-10-01T06:09:17.677Z,12.92
2022-10-01T06:11:44.142Z,12.98
2022-10-01T06:14:10.797Z,12.97
2022-10-01T06:22:15.086Z,12.97
2022-10-01T06:24:41.776Z,12.93
2022-10-01T06:27:08.314Z,12.96
2022-10-01T06:29:34.786Z,12.98
2022-10-01T06:34:42.075Z,13.11
2022-10-01T06:37:12.403Z,13.06
2022-10-01T06:39:38.944Z,13.15
2022-10-01T06:42:05.595Z,13.21
2022-10-01T06:44:40.061Z,13.29
2022-10-01T06:49:47.954Z,13.38
2022-10-01T06:55:16.611Z,13.49
2022-10-01T06:57:43.838Z,13.56
2022-10-01T07:00:11.403Z,13.64
2022-10-01T07:02:38.372Z,13.67
2022-10-01T07:05:13.466Z,13.71
2022-10-01T07:07:40.009Z,13.85
2022-10-01T07:10:09.290Z,13.92
2022-10-01T07:12:36.714Z,14.11
2022-10-01T07:15:05.801Z,14.19
2022-10-01T07:20:25.609Z,14.54
2022-10-01T07:25:51.117Z,14.94
2022-10-01T07:28:20.251Z,15.19
2022-10-01T07:31:12.048Z,15.55
2022-10-01T07:33:39.149Z,15.63
2022-10-01T07:36:08.797Z,15.61
2022-10-01T07:38:47.998Z,15.48
2022-10-01T07:41:16.848Z,15.42
2022-10-01T07:43:43.864Z,15.52
2022-10-01T07:46:10.629Z,15.81
2022-10-01T07:48:37.210Z,15.90
2022-10-01T07:51:03.892Z,16.07
2022-10-01T07:53:31.007Z,16.12
2022-10-01T07:58:43.366Z,17.19
2022-10-01T08:01:10.077Z,17.83
2022-10-01T08:06:24.570Z,18.58
2022-10-01T08:08:52.188Z,18.94
2022-10-01T08:11:18.722Z,19.65
2022-10-01T08:13:48.801Z,18.90
2022-10-01T08:16:15.329Z,18.84
2022-10-01T08:18:41.850Z,19.06
2022-10-01T08:21:09.019Z,19.41
2022-10-01T08:23:36.339Z,19.31
2022-10-01T08:26:07.842Z,19.49
2022-10-01T08:34:04.009Z,19.36
2022-10-01T08:36:30.851Z,19.07
2022-10-01T08:38:57.587Z,19.23
2022-10-01T08:41:39.591Z,20.17
2022-10-01T08:44:07.497Z,20.57
2022-10-01T08:46:36.432Z,20.43
2022-10-01T08:49:16.217Z,20.01
2022-10-01T08:52:10.834Z,21.08
2022-10-01T08:54:41.381Z,20.97
2022-10-01T08:57:30.290Z,20.88
2022-10-01T08:59:59.514Z,20.82
2022-10-01T09:02:29.169Z,20.24
2022-10-01T09:05:01.516Z,19.64
2022-10-01T09:08:15.204Z,18.78
2022-10-01T09:10:46.599Z,18.49
2022-10-01T09:13:16.027Z,18.73
2022-10-01T09:16:01.902Z,19.10
2022-10-01T09:18:40.320Z,20.15
2022-10-01T09:21:30.242Z,20.26
2022-10-01T09:26:48.908Z,20.01
2022-10-01T09:35:48.498Z,19.59
2022-10-01T09:38:36.897Z,18.49
2022-10-01T09:41:04.913Z,17.74
2022-10-01T09:43:36.929Z,17.43
2022-10-01T09:46:14.726Z,17.64
2022-10-01T09:48:44.740Z,17.58
2022-10-01T09:51:15.187Z,17.53
2022-10-01T09:53:47.020Z,17.52
2022-10-01T09:56:27.238Z,17.48
2022-10-01T09:58:55.334Z,18.25
2022-10-01T10:01:37.790Z,19.29
2022-10-01T10:04:04.731Z,20.30
2022-10-01T10:06:35.791Z,20.88
2022-10-01T10:11:43.161Z,20.62
2022-10-01T10:14:18.119Z,20.93
2022-10-01T10:16:46.169Z,21.40
2022-10-01T10:19:24.199Z,21.41
2022-10-01T10:21:53.039Z,20.43
2022-10-01T10:24:26.441Z,19.51
2022-10-01T10:26:55.774Z,19.16
2022-10-01T10:38:01.573Z,19.19
2022-10-01T10:40:34.435Z,18.63
2022-10-01T10:45:43.911Z,19.73
2022-10-01T10:51:05.203Z,20.48
2022-10-01T10:53:47.382Z,21.09
2022-10-01T10:56:31.041Z,20.31
2022-10-01T10:59:08.236Z,19.91
2022-10-01T11:01:37.762Z,19.07
2022-10-01T11:04:38.839Z,18.70
2022-10-01T11:07:05.834Z,18.24
2022-10-01T11:09:58.657Z,18.51
2022-10-01T11:12:52.251Z,19.34
2022-10-01T11:16:07.381Z,19.97
2022-10-01T11:18:45.488Z,20.12
2022-10-01T11:21:46.763Z,20.12
2022-10-01T11:27:15.748Z,19.42
2022-10-01T11:33:12.239Z,18.48
2022-10-01T11:35:55.756Z,19.00
2022-10-01T11:38:43.252Z,19.45
2022-10-01T11:41:21.644Z,19.43
2022-10-01T11:46:53.554Z,20.10
2022-10-01T11:49:33.655Z,19.90
2022-10-01T11:55:35.002Z,19.45
2022-10-01T11:58:43.040Z,19.21
2022-10-01T12:07:38.484Z,19.79
2022-10-01T12:10:21.147Z,19.94
2022-10-01T12:12:54.360Z,20.01
2022-10-01T12:15:29.064Z,19.86
2022-10-01T12:18:01.591Z,19.40
2022-10-01T12:20:34.630Z,19.35
2022-10-01T12:23:03.238Z,20.07
2022-10-01T12:25:43.096Z,20.16
2022-10-01T12:28:24.072Z,19.95
2022-10-01T12:31:06.344Z,19.66
2022-10-01T12:36:42.818Z,19.25
2022-10-01T12:39:14.442Z,19.04
2022-10-01T12:41:50.833Z,18.54
2022-10-01T12:44:26.186Z,18.14
2022-10-01T12:47:03.809Z,18.45
2022-10-01T12:49:41.430Z,18.66
2022-10-01T12:52:33.765Z,18.82
2022-10-01T12:55:35.339Z,19.16
2022-10-01T12:58:01.776Z,19.72
2022-10-01T13:00:35.799Z,19.97
2022-10-01T13:06:21.820Z,20.50
2022-10-01T13:12:48.514Z,19.87
2022-10-01T13:15:21.561Z,19.45
2022-10-01T13:17:57.464Z,19.07
2022-10-01T13:20:27.907Z,18.39
2022-10-01T13:23:12.619Z,18.33
2022-10-01T13:28:37.387Z,17.85
2022-10-01T13:31:15.518Z,18.00
2022-10-01T13:33:43.172Z,18.55
2022-10-01T13:36:10.784Z,19.39
2022-10-01T13:38:46.946Z,20.48
2022-10-01T13:41:29.903Z,20.19
2022-10-01T13:47:08.229Z,19.19
2022-10-01T13:49:36.494Z,19.02
2022-10-01T13:52:04.772Z,18.79
2022-10-01T13:54:37.555Z,18.59
2022-10-01T13:57:21.042Z,18.25
2022-10-01T14:00:17.748Z,19.00
2022-10-01T14:03:04.805Z,19.50
2022-10-01T14:05:36.726Z,19.20
2022-10-01T14:08:14.639Z,19.30
2022-10-01T14:16:47.869Z,18.25
2022-10-01T14:19:19.973Z,18.83
2022-10-01T14:22:13.205Z,19.26
2022-10-01T14:24:49.106Z,19.31
2022-10-01T14:27:29.097Z,20.17
2022-10-01T14:30:15.928Z,20.51
2022-10-01T14:33:07.696Z,21.40
2022-10-01T14:35:45.375Z,21.91
2022-10-01T14:38:13.871Z,22.18
2022-10-01T14:40:43.919Z,22.22
2022-10-01T14:43:17.328Z,22.64
2022-10-01T14:45:57.517Z,22.03
2022-10-01T14:48:25.816Z,21.61
2022-10-01T14:50:55.438Z,21.59
2022-10-01T14:56:14.487Z,22.99
2022-10-01T14:58:52.578Z,22.38
2022-10-01T15:01:31.468Z,21.14
2022-10-01T15:03:58.196Z,20.45
2022-10-01T15:06:33.701Z,20.94
2022-10-01T15:09:12.040Z,21.88
2022-10-01T15:14:22.826Z,22.16
2022-10-01T15:16:49.706Z,21.83
2022-10-01T15:19:19.583Z,22.15
2022-10-01T15:21:57.407Z,22.42
2022-10-01T15:27:25.980Z,21.86
2022-10-01T15:30:02.135Z,21.88
2022-10-01T15:32:29.127Z,22.22
2022-10-01T15:37:40.425Z,22.04
2022-10-01T15:40:20.908Z,22.31
2022-10-01T15:43:07.606Z,21.88
2022-10-01T15:45:35.279Z,21.62
2022-10-01T15:50:43.421Z,21.73
2022-10-01T15:53:19.633Z,21.54
2022-10-01T15:55:50.320Z,21.30
2022-10-01T15:58:22.523Z,20.70
2022-10-01T16:01:09.367Z,20.08
2022-10-01T16:03:42.339Z,18.98
2022-10-01T16:06:18.475Z,18.25
2022-10-01T16:09:06.610Z,18.18
2022-10-01T16:12:02.385Z,18.03
2022-10-01T16:14:36.805Z,18.05
2022-10-01T16:17:23.012Z,18.01
2022-10-01T16:20:00.717Z,17.91
2022-10-01T16:22:37.502Z,17.58
2022-10-01T16:25:19.539Z,17.40
2022-10-01T16:28:05.961Z,17.02
2022-10-01T16:30:33.885Z,16.97
2022-10-01T16:33:04.441Z,16.91
2022-10-01T16:35:33.076Z,16.75
2022-10-01T16:37:59.616Z,16.62
2022-10-01T16:40:29.938Z,16.63
2022-10-01T16:42:57.923Z,16.32
2022-10-01T16:45:27.820Z,16.35
2022-10-01T16:47:58.397Z,16.49
2022-10-01T16:50:25.728Z,16.40
2022-10-01T16:52:53.601Z,16.44
2022-10-01T16:55:30.581Z,16.33
2022-10-01T16:57:57.198Z,16.34
2022-10-01T17:00:25.945Z,16.38
2022-10-01T17:02:53.698Z,16.40
2022-10-01T17:05:20.177Z,16.39
2022-10-01T17:07:46.885Z,16.40
2022-10-01T17:10:14.120Z,16.37
2022-10-01T17:12:41.240Z,16.23
2022-10-01T17:15:08.378Z,16.11
2022-10-01T17:17:35.407Z,16.00
2022-10-01T17:20:01.896Z,15.78
2022-10-01T17:22:28.450Z,15.40
2022-10-01T17:24:55.013Z,15.07
2022-10-01T17:27:21.739Z,14.54
2022-10-01T17:29:48.274Z,14.21
2022-10-01T17:32:18.662Z,13.95
2022-10-01T17:34:45.950Z,13.76
2022-10-01T17:37:12.962Z,13.60
2022-10-01T17:39:41.030Z,13.56
2022-10-01T17:42:07.635Z,13.42
2022-10-01T17:44:34.151Z,13.40
2022-10-01T17:47:00.652Z,13.38
2022-10-01T17:49:27.226Z,13.34
2022-10-01T17:51:53.796Z,13.35
2022-10-01T17:54:21.181Z,13.38
2022-10-01T17:56:48.761Z,13.36
2022-10-01T17:59:15.367Z,13.36
2022-10-01T18:01:41.932Z,13.41
2022-10-01T18:04:12.297Z,13.45
2022-10-01T18:06:39.737Z,13.53
2022-10-01T18:09:07.000Z,13.59
2022-10-01T18:11:33.766Z,13.66
2022-10-01T18:14:00.309Z,13.75
2022-10-01T18:16:27.502Z,13.86
2022-10-01T18:21:44.888Z,13.95
2022-10-01T18:24:11.367Z,13.92
2022-10-01T18:26:38.428Z,13.91
2022-10-01T18:29:05.293Z,13.94
2022-10-01T18:31:38.056Z,13.96
2022-10-01T18:34:15.821Z,13.99
2022-10-01T18:36:51.737Z,14.09
2022-10-01T18:39:40.845Z,14.09
2022-10-01T18:42:17.273Z,14.16
2022-10-01T18:44:43.732Z,14.20
2022-10-01T18:47:31.935Z,14.21
2022-10-01T18:50:04.620Z,14.21
2022-10-01T18:53:08.890Z,14.25
2022-10-01T18:56:00.114Z,14.25
2022-10-01T18:58:46.846Z,14.26
2022-10-01T19:01:13.377Z,14.32
2022-10-01T19:04:07.934Z,14.36
2022-10-01T19:06:41.198Z,14.44
2022-10-01T19:09:11.165Z,14.50
2022-10-01T19:11:50.354Z,14.48
2022-10-01T19:14:37.598Z,14.54
2022-10-01T19:17:25.656Z,14.67
2022-10-01T19:20:15.975Z,14.68
2022-10-01T19:23:13.164Z,14.65
2022-10-01T19:25:55.666Z,14.61
2022-10-01T19:28:28.378Z,14.54
2022-10-01T19:31:04.234Z,14.43
2022-10-01T19:33:33.686Z,14.44
2022-10-01T19:36:00.491Z,14.38
2022-10-01T19:38:35.538Z,14.30
2022-10-01T19:41:12.003Z,14.28
2022-10-01T19:43:49.594Z,14.26
2022-10-01T19:46:23.401Z,14.22
2022-10-01T19:48:57.134Z,14.19
2022-10-01T19:51:28.582Z,14.13
2022-10-01T19:54:01.060Z,14.11
2022-10-01T19:56:33.572Z,14.08
2022-10-01T19:59:26.833Z,14.09
2022-10-01T20:02:02.631Z,14.08
2022-10-01T20:04:48.029Z,14.08
2022-10-01T20:07:22.285Z,14.04
2022-10-01T20:10:05.709Z,14.03
2022-10-01T20:12:42.195Z,14.03
2022-10-01T20:15:35.537Z,14.02
2022-10-01T20:18:18.725Z,13.96
2022-10-01T20:20:48.305Z,13.96
2022-10-01T20:23:36.841Z,13.96
2022-10-01T20:26:11.991Z,13.96
2022-10-01T20:28:52.444Z,13.94
2022-10-01T20:31:43.313Z,13.91
2022-10-01T20:34:18.622Z,13.93
2022-10-01T20:36:54.094Z,13.92
2022-10-01T20:39:32.686Z,13.88
2022-10-01T20:41:59.473Z,13.86
2022-10-01T20:44:35.512Z,13.84
2022-10-01T20:47:12.055Z,13.81
2022-10-01T20:50:09.856Z,13.84
2022-10-01T20:53:03.760Z,13.88
2022-10-01T20:55:40.647Z,13.95
2022-10-01T20:58:13.083Z,14.04
2022-10-01T21:00:42.022Z,14.08
2022-10-01T21:03:23.349Z,14.06
2022-10-01T21:06:06.329Z,14.10
2022-10-01T21:08:41.653Z,14.10
2022-10-01T21:11:14.937Z,14.18
2022-10-01T21:13:55.793Z,14.28
2022-10-01T21:16:34.892Z,14.36
2022-10-01T21:19:34.611Z,14.42
2022-10-01T21:22:32.356Z,14.45
2022-10-01T21:25:19.042Z,14.49
2022-10-01T21:28:05.159Z,14.49
2022-10-01T21:31:07.479Z,14.53
2022-10-01T21:33:38.769Z,13.90
2022-10-01T21:36:23.012Z,12.86
2022-10-01T21:39:20.868Z,12.20
2022-10-01T21:42:03.492Z,11.78
2022-10-01T21:44:38.939Z,11.62
2022-10-01T21:47:40.820Z,11.52
2022-10-01T21:50:48.903Z,11.46
2022-10-01T21:53:40.341Z,11.42
2022-10-01T21:56:39.293Z,11.38
2022-10-01T21:59:28.651Z,11.34
2022-10-01T22:02:04.527Z,11.31
2022-10-01T22:04:50.566Z,11.47
2022-10-01T22:07:19.969Z,11.61
2022-10-01T22:10:10.914Z,11.72
2022-10-01T22:12:40.521Z,11.81
2022-10-01T22:15:21.158Z,11.83
2022-10-01T22:17:49.954Z,11.87
2022-10-01T22:20:18.149Z,11.92
2022-10-01T22:22:45.766Z,11.91
2022-10-01T22:25:13.785Z,11.95
2022-10-01T22:27:59.367Z,11.97
2022-10-01T22:30:26.351Z,11.98
2022-10-01T22:33:05.657Z,11.99
2022-10-01T22:35:43.250Z,12.03
2022-10-01T22:38:23.648Z,12.07
2022-10-01T22:40:55.565Z,12.17
2022-10-01T22:43:22.099Z,12.24
2022-10-01T22:46:00.999Z,12.26
2022-10-01T22:48:39.377Z,12.31
2022-10-01T22:51:56.608Z,12.50
2022-10-01T22:54:52.269Z,12.65
2022-10-01T22:57:37.954Z,12.85
2022-10-01T23:00:04.298Z,12.88
2022-10-01T23:02:41.012Z,12.93
2022-10-01T23:05:11.057Z,12.98
2022-10-01T23:07:37.463Z,13.08
2022-10-01T23:10:10.805Z,13.14
2022-10-01T23:12:49.269Z,13.23
2022-10-01T23:15:24.564Z,13.30
2022-10-01T23:17:50.996Z,13.33
2022-10-01T23:20:20.490Z,13.38
2022-10-01T23:22:46.942Z,13.39
2022-10-01T23:25:23.852Z,13.42
2022-10-01T23:27:53.539Z,13.45
2022-10-01T23:30:20.384Z,13.48
2022-10-01T23:33:05.669Z,13.46
2022-10-01T23:35:50.881Z,13.52
2022-10-01T23:38:32.578Z,13.58
2022-10-01T23:41:03.962Z,13.60
2022-10-01T23:43:39.038Z,13.55
2022-10-01T23:46:12.224Z,13.59
2022-10-01T23:48:48.453Z,13.60
2022-10-01T23:51:32.952Z,13.59
2022-10-01T23:54:05.400Z,13.66
2022-10-01T23:57:03.595Z,13.68
2022-10-01T23:59:36.161Z,13.73
